NCAR-RAP Real-Time Weather Data

Output produced by METARs form (18 August 2018  01:02 UTC)
found at http://weather.rap.ucar.edu/surface/
 
RJKA 180000Z 06007KT 9999 FEW020 30/25 Q1008
RJKA 172300Z 06007KT 9999 FEW020 SCT025 29/25 Q1007
RJKA 172200Z 07007KT 9999 FEW015 SCT020 28/25 Q1007
RJKA 172130Z 06006KT 9999 FEW015 SCT020 28/25 Q1007
RJKA 171000Z 09005KT 050V110 9999 FEW020 BKN/// 28/26 Q1005
RJKA 170900Z 10006KT 9999 FEW020 BKN/// 29/26 Q1005
RJKA 170800Z 10006KT 9999 FEW020 SCT/// 30/26 Q1005
RJKA 170700Z 09008KT 9999 FEW025 SCT030 30/25 Q1004
RJKA 170600Z 14007KT 9999 FEW020 SCT025 30/25 Q1005
RJKA 170500Z 09008KT 9999 FEW020 SCT025 31/26 Q1005
RJKA 170400Z 09009KT 9999 FEW020 31/26 Q1005
RJKA 170300Z 14010KT 9999 FEW015 SCT020 31/26 Q1005
RJKA 170200Z 13009KT 9999 FEW020 SCT025 31/26 Q1006
RJKA 170100Z 14008KT 9999 FEW020 31/26 Q1006
RJKA 170000Z 13008KT 9999 FEW015 29/26 Q1006
RJKA 162300Z 14008KT 9999 FEW015 SCT/// 29/26 Q1006
RJKA 162200Z 14007KT 9999 FEW015 29/26 Q1005
RJKA 162130Z 16007KT 9999 FEW015 SCT/// 28/26 Q1005
RJKA 161000Z 15013KT 9999 FEW015 SCT020 BKN/// 28/26 Q1005
RJKA 160900Z 16015KT 9999 FEW015 BKN/// 29/26 Q1004
RJKA 160800Z 15016KT 9999 FEW015 BKN/// 29/26 Q1004
RJKA 160700Z 15017KT 9999 FEW015 SCT020 BKN/// 30/26 Q1004
RJKA 160600Z 15016KT 9999 FEW012 SCT020 BKN/// 30/26 Q1004
RJKA 160500Z 16017KT 9999 FEW015 BKN/// 31/26 Q1004
RJKA 160400Z 16017KT 9999 FEW015 SCT020 BKN/// 31/27 Q1004
RJKA 160300Z 16017KT 9999 FEW015 SCT020 BKN/// 31/26 Q1004
RJKA 160200Z 16017KT 9999 FEW010 SCT030 BKN/// 31/26 Q1004
RJKA 160100Z 17015KT 9999 FEW015 SCT020 BKN/// 30/26 Q1004
RJKA 160000Z 16017KT 9999 FEW010 SCT015 BKN/// 30/26 Q1004
RJKA 152300Z 18017KT 9999 FEW015 BKN/// 28/26 Q1004
RJKA 152200Z 16020KT 9999 FEW015 SCT020 BKN025 29/26 Q1004
RJKA 152130Z 17019KT 9999 FEW015 BKN020 FEW025CB BKN/// 28/26 Q1003